Terminal Aerodrome Forecast
Issued by NWS

Current Version | Previous Version | Text Only | Print | Product List | Glossary Off
Versions: 1 2 3 4 5 6 7 8 9 10 11 12 13 14 15 16 17 18 19

000
FTUS41 KPBZ 170800 AAA
TAFHLG
TAF AMD
KHLG 170805Z 1708/1806 24006KT P6SM OVC060
      TEMPO 1708/1710 BKN015
     FM171000 24006KT 6SM -RA BKN015
     FM171800 27005KT P6SM BKN060=

USA.gov is the U.S. government's official web portal to all federal, state and local government web resources and services.